sensor_id;sensor_type;location;lat;lon;timestamp;P1;durP1;ratioP1;P2;durP2;ratioP2
81330;SDS011;70793;53.076;8.822;2023-06-24T00:02:01;2.25;;;1.88;;
81330;SDS011;70793;53.076;8.822;2023-06-24T00:04:26;2.10;;;1.90;;
81330;SDS011;70793;53.076;8.822;2023-06-24T00:06:52;2.55;;;2.00;;
81330;SDS011;70793;53.076;8.822;2023-06-24T00:09:17;3.28;;;2.20;;
81330;SDS011;70793;53.076;8.822;2023-06-24T00:11:43;2.72;;;2.40;;
81330;SDS011;70793;53.076;8.822;2023-06-24T00:14:08;2.63;;;1.90;;
81330;SDS011;70793;53.076;8.822;2023-06-24T00:16:33;3.00;;;2.27;;
81330;SDS011;70793;53.076;8.822;2023-06-24T00:19:01;3.08;;;1.85;;
81330;SDS011;70793;53.076;8.822;2023-06-24T00:21:26;2.67;;;2.25;;
81330;SDS011;70793;53.076;8.822;2023-06-24T00:23:56;2.97;;;2.13;;
81330;SDS011;70793;53.076;8.822;2023-06-24T00:26:22;2.08;;;1.88;;
81330;SDS011;70793;53.076;8.822;2023-06-24T00:28:47;3.85;;;2.33;;
81330;SDS011;70793;53.076;8.822;2023-06-24T00:31:13;2.53;;;2.10;;
81330;SDS011;70793;53.076;8.822;2023-06-24T00:33:38;3.40;;;1.80;;
81330;SDS011;70793;53.076;8.822;2023-06-24T00:36:03;3.83;;;2.83;;
81330;SDS011;70793;53.076;8.822;2023-06-24T00:38:30;2.83;;;1.90;;
81330;SDS011;70793;53.076;8.822;2023-06-24T00:40:57;2.28;;;1.92;;
81330;SDS011;70793;53.076;8.822;2023-06-24T00:43:23;2.97;;;2.30;;
81330;SDS011;70793;53.076;8.822;2023-06-24T00:45:48;2.27;;;2.07;;
81330;SDS011;70793;53.076;8.822;2023-06-24T00:48:14;2.35;;;1.90;;
81330;SDS011;70793;53.076;8.822;2023-06-24T00:50:40;2.42;;;2.10;;
81330;SDS011;70793;53.076;8.822;2023-06-24T00:53:07;3.35;;;2.10;;
81330;SDS011;70793;53.076;8.822;2023-06-24T00:55:32;2.30;;;2.03;;
81330;SDS011;70793;53.076;8.822;2023-06-24T00:57:58;3.67;;;2.03;;
81330;SDS011;70793;53.076;8.822;2023-06-24T01:00:25;2.78;;;1.92;;
81330;SDS011;70793;53.076;8.822;2023-06-24T01:02:51;2.33;;;2.13;;
81330;SDS011;70793;53.076;8.822;2023-06-24T01:05:17;2.55;;;2.15;;
81330;SDS011;70793;53.076;8.822;2023-06-24T01:07:42;2.83;;;2.40;;
81330;SDS011;70793;53.076;8.822;2023-06-24T01:10:08;3.00;;;2.67;;
81330;SDS011;70793;53.076;8.822;2023-06-24T01:12:35;2.78;;;2.35;;
81330;SDS011;70793;53.076;8.822;2023-06-24T01:15:03;4.38;;;2.00;;
81330;SDS011;70793;53.076;8.822;2023-06-24T01:17:35;3.05;;;2.33;;
81330;SDS011;70793;53.076;8.822;2023-06-24T01:22:37;2.17;;;2.00;;
81330;SDS011;70793;53.076;8.822;2023-06-24T01:32:54;2.25;;;2.00;;
81330;SDS011;70793;53.076;8.822;2023-06-24T01:35:23;2.60;;;2.40;;
81330;SDS011;70793;53.076;8.822;2023-06-24T01:37:51;2.70;;;2.20;;
81330;SDS011;70793;53.076;8.822;2023-06-24T01:40:31;2.72;;;2.53;;
81330;SDS011;70793;53.076;8.822;2023-06-24T01:43:00;2.95;;;2.45;;
81330;SDS011;70793;53.076;8.822;2023-06-24T01:45:27;3.85;;;2.25;;
81330;SDS011;70793;53.076;8.822;2023-06-24T01:48:02;2.80;;;2.35;;
81330;SDS011;70793;53.076;8.822;2023-06-24T01:50:31;2.85;;;2.22;;
81330;SDS011;70793;53.076;8.822;2023-06-24T01:52:57;2.83;;;2.00;;
81330;SDS011;70793;53.076;8.822;2023-06-24T01:55:23;3.03;;;2.28;;
81330;SDS011;70793;53.076;8.822;2023-06-24T01:57:49;2.97;;;2.47;;
81330;SDS011;70793;53.076;8.822;2023-06-24T02:00:16;2.90;;;2.50;;
81330;SDS011;70793;53.076;8.822;2023-06-24T02:02:42;2.80;;;2.17;;
81330;SDS011;70793;53.076;8.822;2023-06-24T02:05:08;3.45;;;2.78;;
81330;SDS011;70793;53.076;8.822;2023-06-24T02:07:34;2.88;;;2.40;;
81330;SDS011;70793;53.076;8.822;2023-06-24T02:10:00;2.60;;;2.20;;
81330;SDS011;70793;53.076;8.822;2023-06-24T02:12:26;3.13;;;2.58;;
81330;SDS011;70793;53.076;8.822;2023-06-24T02:14:54;3.08;;;2.58;;
81330;SDS011;70793;53.076;8.822;2023-06-24T02:17:20;3.10;;;2.53;;
81330;SDS011;70793;53.076;8.822;2023-06-24T02:19:47;4.18;;;3.03;;
81330;SDS011;70793;53.076;8.822;2023-06-24T02:22:13;2.92;;;2.65;;
81330;SDS011;70793;53.076;8.822;2023-06-24T02:24:39;3.53;;;2.45;;
81330;SDS011;70793;53.076;8.822;2023-06-24T02:27:06;4.03;;;2.83;;
81330;SDS011;70793;53.076;8.822;2023-06-24T02:29:32;4.88;;;2.45;;
81330;SDS011;70793;53.076;8.822;2023-06-24T02:31:58;2.85;;;2.50;;
81330;SDS011;70793;53.076;8.822;2023-06-24T02:34:24;3.40;;;2.83;;
81330;SDS011;70793;53.076;8.822;2023-06-24T02:36:49;3.28;;;2.90;;
81330;SDS011;70793;53.076;8.822;2023-06-24T02:39:14;2.63;;;2.28;;
81330;SDS011;70793;53.076;8.822;2023-06-24T02:41:40;3.00;;;2.63;;
81330;SDS011;70793;53.076;8.822;2023-06-24T02:44:05;2.65;;;2.45;;
81330;SDS011;70793;53.076;8.822;2023-06-24T02:46:31;3.15;;;2.85;;
81330;SDS011;70793;53.076;8.822;2023-06-24T02:48:58;2.83;;;2.55;;
81330;SDS011;70793;53.076;8.822;2023-06-24T02:51:24;2.97;;;2.60;;
81330;SDS011;70793;53.076;8.822;2023-06-24T02:53:50;3.08;;;2.60;;
81330;SDS011;70793;53.076;8.822;2023-06-24T02:56:16;4.78;;;2.63;;
81330;SDS011;70793;53.076;8.822;2023-06-24T02:58:45;3.85;;;3.38;;
81330;SDS011;70793;53.076;8.822;2023-06-24T03:01:11;2.80;;;2.60;;
81330;SDS011;70793;53.076;8.822;2023-06-24T03:03:37;4.20;;;3.30;;
81330;SDS011;70793;53.076;8.822;2023-06-24T03:06:02;3.17;;;2.67;;
81330;SDS011;70793;53.076;8.822;2023-06-24T03:08:28;3.15;;;2.63;;
81330;SDS011;70793;53.076;8.822;2023-06-24T03:10:54;3.53;;;2.92;;
81330;SDS011;70793;53.076;8.822;2023-06-24T03:13:20;3.22;;;2.85;;
81330;SDS011;70793;53.076;8.822;2023-06-24T03:15:46;2.77;;;2.37;;
81330;SDS011;70793;53.076;8.822;2023-06-24T03:18:11;2.60;;;2.25;;
81330;SDS011;70793;53.076;8.822;2023-06-24T03:20:37;3.08;;;2.78;;
81330;SDS011;70793;53.076;8.822;2023-06-24T03:23:04;3.80;;;3.45;;
81330;SDS011;70793;53.076;8.822;2023-06-24T03:25:30;3.60;;;3.17;;
81330;SDS011;70793;53.076;8.822;2023-06-24T03:27:56;2.95;;;2.53;;
81330;SDS011;70793;53.076;8.822;2023-06-24T03:30:21;3.27;;;2.60;;
81330;SDS011;70793;53.076;8.822;2023-06-24T03:32:46;3.63;;;2.57;;
81330;SDS011;70793;53.076;8.822;2023-06-24T03:35:12;3.20;;;2.67;;
81330;SDS011;70793;53.076;8.822;2023-06-24T03:37:38;3.42;;;2.72;;
81330;SDS011;70793;53.076;8.822;2023-06-24T03:40:03;3.43;;;2.50;;
81330;SDS011;70793;53.076;8.822;2023-06-24T03:42:29;3.08;;;2.40;;
81330;SDS011;70793;53.076;8.822;2023-06-24T03:44:55;4.53;;;3.10;;
81330;SDS011;70793;53.076;8.822;2023-06-24T03:47:20;3.63;;;2.80;;
81330;SDS011;70793;53.076;8.822;2023-06-24T03:49:45;3.73;;;2.93;;
81330;SDS011;70793;53.076;8.822;2023-06-24T03:52:11;2.67;;;2.03;;
81330;SDS011;70793;53.076;8.822;2023-06-24T03:54:36;3.80;;;2.77;;
81330;SDS011;70793;53.076;8.822;2023-06-24T03:57:01;2.93;;;2.50;;
81330;SDS011;70793;53.076;8.822;2023-06-24T03:59:27;3.70;;;2.50;;
81330;SDS011;70793;53.076;8.822;2023-06-24T04:01:52;3.60;;;2.80;;
81330;SDS011;70793;53.076;8.822;2023-06-24T04:04:18;3.40;;;3.05;;
81330;SDS011;70793;53.076;8.822;2023-06-24T04:06:43;5.13;;;2.70;;
81330;SDS011;70793;53.076;8.822;2023-06-24T04:09:08;3.55;;;3.25;;
81330;SDS011;70793;53.076;8.822;2023-06-24T04:11:35;3.13;;;2.83;;
81330;SDS011;70793;53.076;8.822;2023-06-24T04:14:00;2.95;;;2.63;;
81330;SDS011;70793;53.076;8.822;2023-06-24T04:16:26;3.78;;;3.13;;
81330;SDS011;70793;53.076;8.822;2023-06-24T04:18:52;2.70;;;2.50;;
81330;SDS011;70793;53.076;8.822;2023-06-24T04:21:17;3.03;;;2.72;;
81330;SDS011;70793;53.076;8.822;2023-06-24T04:23:43;3.90;;;2.92;;
81330;SDS011;70793;53.076;8.822;2023-06-24T04:26:09;3.30;;;2.60;;
81330;SDS011;70793;53.076;8.822;2023-06-24T04:28:34;3.63;;;3.08;;
81330;SDS011;70793;53.076;8.822;2023-06-24T04:31:00;4.47;;;2.90;;
81330;SDS011;70793;53.076;8.822;2023-06-24T04:33:25;3.20;;;2.73;;
81330;SDS011;70793;53.076;8.822;2023-06-24T04:35:50;3.80;;;2.63;;
81330;SDS011;70793;53.076;8.822;2023-06-24T04:38:16;4.13;;;3.05;;
81330;SDS011;70793;53.076;8.822;2023-06-24T04:40:43;4.25;;;2.80;;
81330;SDS011;70793;53.076;8.822;2023-06-24T04:43:09;4.45;;;3.28;;
81330;SDS011;70793;53.076;8.822;2023-06-24T04:45:34;3.50;;;2.87;;
81330;SDS011;70793;53.076;8.822;2023-06-24T04:48:00;2.97;;;2.67;;
81330;SDS011;70793;53.076;8.822;2023-06-24T04:50:25;3.65;;;3.28;;
81330;SDS011;70793;53.076;8.822;2023-06-24T04:52:54;5.77;;;3.17;;
81330;SDS011;70793;53.076;8.822;2023-06-24T04:55:21;3.55;;;2.88;;
81330;SDS011;70793;53.076;8.822;2023-06-24T04:57:47;3.50;;;2.78;;
81330;SDS011;70793;53.076;8.822;2023-06-24T05:00:12;3.80;;;2.90;;
81330;SDS011;70793;53.076;8.822;2023-06-24T05:02:38;3.63;;;3.33;;
81330;SDS011;70793;53.076;8.822;2023-06-24T05:05:03;3.13;;;2.67;;
81330;SDS011;70793;53.076;8.822;2023-06-24T05:07:29;3.88;;;3.47;;
81330;SDS011;70793;53.076;8.822;2023-06-24T05:09:55;3.60;;;2.92;;
81330;SDS011;70793;53.076;8.822;2023-06-24T05:12:20;3.92;;;2.97;;
81330;SDS011;70793;53.076;8.822;2023-06-24T05:14:49;3.67;;;2.63;;
81330;SDS011;70793;53.076;8.822;2023-06-24T05:17:15;3.95;;;2.70;;
81330;SDS011;70793;53.076;8.822;2023-06-24T05:19:41;3.58;;;2.78;;
81330;SDS011;70793;53.076;8.822;2023-06-24T05:22:06;3.38;;;2.53;;
81330;SDS011;70793;53.076;8.822;2023-06-24T05:24:31;2.53;;;2.13;;
81330;SDS011;70793;53.076;8.822;2023-06-24T05:27:02;3.90;;;3.17;;
81330;SDS011;70793;53.076;8.822;2023-06-24T05:29:29;3.20;;;2.90;;
81330;SDS011;70793;53.076;8.822;2023-06-24T05:31:55;3.67;;;2.97;;
81330;SDS011;70793;53.076;8.822;2023-06-24T05:34:20;3.38;;;2.90;;
81330;SDS011;70793;53.076;8.822;2023-06-24T05:36:45;3.10;;;2.80;;
81330;SDS011;70793;53.076;8.822;2023-06-24T05:39:11;3.85;;;3.05;;
81330;SDS011;70793;53.076;8.822;2023-06-24T05:41:37;3.45;;;3.15;;
81330;SDS011;70793;53.076;8.822;2023-06-24T05:44:03;3.55;;;2.75;;
81330;SDS011;70793;53.076;8.822;2023-06-24T05:46:31;3.75;;;2.63;;
81330;SDS011;70793;53.076;8.822;2023-06-24T05:48:56;3.05;;;2.80;;
81330;SDS011;70793;53.076;8.822;2023-06-24T05:51:22;2.28;;;2.08;;
81330;SDS011;70793;53.076;8.822;2023-06-24T05:53:47;3.75;;;3.40;;
81330;SDS011;70793;53.076;8.822;2023-06-24T05:56:13;2.50;;;2.27;;
81330;SDS011;70793;53.076;8.822;2023-06-24T05:58:38;2.40;;;2.20;;
81330;SDS011;70793;53.076;8.822;2023-06-24T06:01:03;2.83;;;2.50;;
81330;SDS011;70793;53.076;8.822;2023-06-24T06:03:29;2.60;;;2.40;;
81330;SDS011;70793;53.076;8.822;2023-06-24T06:05:54;3.37;;;2.90;;
81330;SDS011;70793;53.076;8.822;2023-06-24T06:08:19;2.88;;;2.58;;
81330;SDS011;70793;53.076;8.822;2023-06-24T06:10:45;2.97;;;2.63;;
81330;SDS011;70793;53.076;8.822;2023-06-24T06:13:10;3.03;;;2.10;;
81330;SDS011;70793;53.076;8.822;2023-06-24T06:15:35;2.23;;;2.03;;
81330;SDS011;70793;53.076;8.822;2023-06-24T06:18:01;2.77;;;2.17;;
81330;SDS011;70793;53.076;8.822;2023-06-24T06:20:26;2.43;;;2.17;;
81330;SDS011;70793;53.076;8.822;2023-06-24T06:22:51;2.03;;;1.83;;
81330;SDS011;70793;53.076;8.822;2023-06-24T06:25:17;2.57;;;2.17;;
81330;SDS011;70793;53.076;8.822;2023-06-24T06:27:42;2.92;;;2.22;;
81330;SDS011;70793;53.076;8.822;2023-06-24T06:30:08;2.28;;;2.08;;
81330;SDS011;70793;53.076;8.822;2023-06-24T06:32:33;3.60;;;2.05;;
81330;SDS011;70793;53.076;8.822;2023-06-24T06:34:59;2.40;;;2.20;;
81330;SDS011;70793;53.076;8.822;2023-06-24T06:37:24;2.40;;;2.17;;
81330;SDS011;70793;53.076;8.822;2023-06-24T06:39:49;2.60;;;2.20;;
81330;SDS011;70793;53.076;8.822;2023-06-24T06:42:15;3.67;;;2.35;;
81330;SDS011;70793;53.076;8.822;2023-06-24T06:44:40;2.38;;;2.15;;
81330;SDS011;70793;53.076;8.822;2023-06-24T06:47:06;3.10;;;2.67;;
81330;SDS011;70793;53.076;8.822;2023-06-24T06:49:32;2.35;;;2.13;;
81330;SDS011;70793;53.076;8.822;2023-06-24T06:51:57;3.40;;;2.07;;
81330;SDS011;70793;53.076;8.822;2023-06-24T06:54:22;2.70;;;2.20;;
81330;SDS011;70793;53.076;8.822;2023-06-24T06:56:48;2.40;;;1.63;;
81330;SDS011;70793;53.076;8.822;2023-06-24T06:59:13;3.03;;;2.00;;
81330;SDS011;70793;53.076;8.822;2023-06-24T07:01:38;2.00;;;1.77;;
81330;SDS011;70793;53.076;8.822;2023-06-24T07:04:04;2.50;;;2.10;;
81330;SDS011;70793;53.076;8.822;2023-06-24T07:06:32;3.20;;;1.95;;
81330;SDS011;70793;53.076;8.822;2023-06-24T07:08:58;2.20;;;2.00;;
81330;SDS011;70793;53.076;8.822;2023-06-24T07:11:27;2.33;;;1.92;;
81330;SDS011;70793;53.076;8.822;2023-06-24T07:13:52;2.03;;;1.83;;
81330;SDS011;70793;53.076;8.822;2023-06-24T07:16:20;1.92;;;1.60;;
81330;SDS011;70793;53.076;8.822;2023-06-24T07:18:45;2.25;;;2.05;;
81330;SDS011;70793;53.076;8.822;2023-06-24T07:21:11;2.83;;;1.90;;
81330;SDS011;70793;53.076;8.822;2023-06-24T07:23:36;2.47;;;1.60;;
81330;SDS011;70793;53.076;8.822;2023-06-24T07:26:01;3.28;;;1.77;;
81330;SDS011;70793;53.076;8.822;2023-06-24T07:28:27;2.38;;;1.40;;
81330;SDS011;70793;53.076;8.822;2023-06-24T07:30:52;2.20;;;1.77;;
81330;SDS011;70793;53.076;8.822;2023-06-24T07:33:18;1.77;;;1.53;;
81330;SDS011;70793;53.076;8.822;2023-06-24T07:35:43;2.03;;;1.90;;
81330;SDS011;70793;53.076;8.822;2023-06-24T07:38:09;2.23;;;1.60;;
81330;SDS011;70793;53.076;8.822;2023-06-24T07:40:34;1.73;;;1.63;;
81330;SDS011;70793;53.076;8.822;2023-06-24T07:43:00;2.25;;;2.00;;
81330;SDS011;70793;53.076;8.822;2023-06-24T07:45:25;2.10;;;1.90;;
81330;SDS011;70793;53.076;8.822;2023-06-24T07:47:50;1.60;;;1.50;;
81330;SDS011;70793;53.076;8.822;2023-06-24T07:50:16;2.15;;;1.83;;
81330;SDS011;70793;53.076;8.822;2023-06-24T07:52:41;2.10;;;1.88;;
81330;SDS011;70793;53.076;8.822;2023-06-24T07:55:07;1.83;;;1.60;;
81330;SDS011;70793;53.076;8.822;2023-06-24T07:57:32;2.92;;;1.65;;
81330;SDS011;70793;53.076;8.822;2023-06-24T07:59:58;1.97;;;1.67;;
81330;SDS011;70793;53.076;8.822;2023-06-24T08:02:23;2.10;;;1.80;;
81330;SDS011;70793;53.076;8.822;2023-06-24T08:04:51;1.70;;;1.60;;
81330;SDS011;70793;53.076;8.822;2023-06-24T08:07:17;3.13;;;1.52;;
81330;SDS011;70793;53.076;8.822;2023-06-24T08:09:42;3.55;;;2.40;;
81330;SDS011;70793;53.076;8.822;2023-06-24T08:12:08;3.10;;;2.05;;
81330;SDS011;70793;53.076;8.822;2023-06-24T08:14:34;2.55;;;1.63;;
81330;SDS011;70793;53.076;8.822;2023-06-24T08:17:00;3.75;;;2.33;;
81330;SDS011;70793;53.076;8.822;2023-06-24T08:19:25;1.67;;;1.58;;
81330;SDS011;70793;53.076;8.822;2023-06-24T08:21:51;1.93;;;1.73;;
81330;SDS011;70793;53.076;8.822;2023-06-24T08:24:16;2.05;;;1.42;;
81330;SDS011;70793;53.076;8.822;2023-06-24T08:26:41;1.77;;;1.67;;
81330;SDS011;70793;53.076;8.822;2023-06-24T08:29:07;1.40;;;1.30;;
81330;SDS011;70793;53.076;8.822;2023-06-24T08:31:32;2.35;;;1.38;;
81330;SDS011;70793;53.076;8.822;2023-06-24T08:34:01;3.03;;;1.77;;
81330;SDS011;70793;53.076;8.822;2023-06-24T08:36:28;1.38;;;1.27;;
81330;SDS011;70793;53.076;8.822;2023-06-24T08:38:54;2.58;;;1.60;;
81330;SDS011;70793;53.076;8.822;2023-06-24T08:41:20;2.00;;;1.60;;
81330;SDS011;70793;53.076;8.822;2023-06-24T08:43:45;2.83;;;1.88;;
81330;SDS011;70793;53.076;8.822;2023-06-24T08:46:11;1.70;;;1.55;;
81330;SDS011;70793;53.076;8.822;2023-06-24T08:48:38;1.60;;;1.50;;
81330;SDS011;70793;53.076;8.822;2023-06-24T08:51:06;1.58;;;1.38;;
81330;SDS011;70793;53.076;8.822;2023-06-24T08:53:32;1.23;;;1.08;;
81330;SDS011;70793;53.076;8.822;2023-06-24T08:55:58;1.40;;;1.30;;
81330;SDS011;70793;53.076;8.822;2023-06-24T08:58:26;2.63;;;1.38;;
81330;SDS011;70793;53.076;8.822;2023-06-24T09:00:52;1.85;;;1.50;;
81330;SDS011;70793;53.076;8.822;2023-06-24T09:03:17;1.63;;;1.30;;
81330;SDS011;70793;53.076;8.822;2023-06-24T09:05:43;1.50;;;1.40;;
81330;SDS011;70793;53.076;8.822;2023-06-24T09:08:09;3.30;;;1.45;;
81330;SDS011;70793;53.076;8.822;2023-06-24T09:10:35;1.67;;;1.40;;
81330;SDS011;70793;53.076;8.822;2023-06-24T09:13:02;1.40;;;1.30;;
81330;SDS011;70793;53.076;8.822;2023-06-24T09:15:32;2.10;;;1.20;;
81330;SDS011;70793;53.076;8.822;2023-06-24T09:17:58;1.42;;;1.33;;
81330;SDS011;70793;53.076;8.822;2023-06-24T09:20:28;1.02;;;0.93;;
81330;SDS011;70793;53.076;8.822;2023-06-24T09:23:02;1.17;;;1.00;;
81330;SDS011;70793;53.076;8.822;2023-06-24T09:25:28;1.50;;;1.20;;
81330;SDS011;70793;53.076;8.822;2023-06-24T09:27:54;4.25;;;3.70;;
81330;SDS011;70793;53.076;8.822;2023-06-24T09:32:49;3.25;;;1.60;;
81330;SDS011;70793;53.076;8.822;2023-06-24T09:35:18;1.90;;;1.50;;
81330;SDS011;70793;53.076;8.822;2023-06-24T09:37:52;1.20;;;1.02;;
81330;SDS011;70793;53.076;8.822;2023-06-24T09:40:19;1.42;;;1.33;;
81330;SDS011;70793;53.076;8.822;2023-06-24T09:42:55;1.40;;;1.15;;
81330;SDS011;70793;53.076;8.822;2023-06-24T09:45:23;1.50;;;1.38;;
81330;SDS011;70793;53.076;8.822;2023-06-24T09:47:52;1.13;;;0.98;;
81330;SDS011;70793;53.076;8.822;2023-06-24T09:50:18;1.83;;;1.40;;
81330;SDS011;70793;53.076;8.822;2023-06-24T09:52:44;1.17;;;1.08;;
81330;SDS011;70793;53.076;8.822;2023-06-24T09:55:12;1.13;;;1.02;;
81330;SDS011;70793;53.076;8.822;2023-06-24T09:57:39;1.77;;;1.38;;
81330;SDS011;70793;53.076;8.822;2023-06-24T10:00:06;1.50;;;1.20;;
81330;SDS011;70793;53.076;8.822;2023-06-24T10:02:32;1.10;;;0.98;;
81330;SDS011;70793;53.076;8.822;2023-06-24T10:04:59;1.13;;;1.02;;
81330;SDS011;70793;53.076;8.822;2023-06-24T10:07:24;1.40;;;1.25;;
81330;SDS011;70793;53.076;8.822;2023-06-24T10:09:52;1.33;;;1.05;;
81330;SDS011;70793;53.076;8.822;2023-06-24T10:12:18;1.70;;;1.33;;
81330;SDS011;70793;53.076;8.822;2023-06-24T10:14:44;1.17;;;1.08;;
81330;SDS011;70793;53.076;8.822;2023-06-24T10:17:09;1.33;;;1.20;;
81330;SDS011;70793;53.076;8.822;2023-06-24T10:19:40;1.48;;;1.38;;
81330;SDS011;70793;53.076;8.822;2023-06-24T10:22:09;1.20;;;0.95;;
81330;SDS011;70793;53.076;8.822;2023-06-24T10:24:36;1.67;;;1.35;;
81330;SDS011;70793;53.076;8.822;2023-06-24T10:27:08;1.38;;;1.27;;
81330;SDS011;70793;53.076;8.822;2023-06-24T10:29:34;1.67;;;1.17;;
81330;SDS011;70793;53.076;8.822;2023-06-24T10:32:07;1.17;;;1.08;;
81330;SDS011;70793;53.076;8.822;2023-06-24T10:34:34;1.38;;;0.88;;
81330;SDS011;70793;53.076;8.822;2023-06-24T10:37:05;1.52;;;1.30;;
81330;SDS011;70793;53.076;8.822;2023-06-24T10:42:25;2.03;;;1.70;;
81330;SDS011;70793;53.076;8.822;2023-06-24T10:44:54;1.27;;;1.17;;
81330;SDS011;70793;53.076;8.822;2023-06-24T10:47:24;1.50;;;1.38;;
81330;SDS011;70793;53.076;8.822;2023-06-24T10:49:50;2.25;;;1.70;;
81330;SDS011;70793;53.076;8.822;2023-06-24T10:52:17;2.47;;;1.80;;
81330;SDS011;70793;53.076;8.822;2023-06-24T10:54:44;2.25;;;1.70;;
81330;SDS011;70793;53.076;8.822;2023-06-24T10:57:09;2.75;;;1.30;;
81330;SDS011;70793;53.076;8.822;2023-06-24T10:59:42;1.50;;;1.30;;
81330;SDS011;70793;53.076;8.822;2023-06-24T11:02:15;1.48;;;1.38;;
81330;SDS011;70793;53.076;8.822;2023-06-24T11:04:43;1.83;;;1.65;;
81330;SDS011;70793;53.076;8.822;2023-06-24T11:07:11;1.42;;;1.33;;
81330;SDS011;70793;53.076;8.822;2023-06-24T11:09:37;1.90;;;1.58;;
81330;SDS011;70793;53.076;8.822;2023-06-24T11:12:03;2.03;;;1.60;;
81330;SDS011;70793;53.076;8.822;2023-06-24T11:14:29;1.40;;;1.30;;
81330;SDS011;70793;53.076;8.822;2023-06-24T11:16:54;1.83;;;1.73;;
81330;SDS011;70793;53.076;8.822;2023-06-24T11:19:20;1.77;;;1.67;;
81330;SDS011;70793;53.076;8.822;2023-06-24T11:21:45;1.97;;;1.60;;
81330;SDS011;70793;53.076;8.822;2023-06-24T11:24:11;2.33;;;2.13;;
81330;SDS011;70793;53.076;8.822;2023-06-24T11:26:36;1.50;;;1.40;;
81330;SDS011;70793;53.076;8.822;2023-06-24T11:29:09;2.25;;;1.50;;
81330;SDS011;70793;53.076;8.822;2023-06-24T11:31:35;1.98;;;1.70;;
81330;SDS011;70793;53.076;8.822;2023-06-24T11:34:01;2.45;;;1.83;;
81330;SDS011;70793;53.076;8.822;2023-06-24T11:36:26;1.83;;;1.40;;
81330;SDS011;70793;53.076;8.822;2023-06-24T11:38:51;1.92;;;1.40;;
81330;SDS011;70793;53.076;8.822;2023-06-24T11:41:20;2.47;;;1.70;;
81330;SDS011;70793;53.076;8.822;2023-06-24T11:43:46;1.60;;;1.50;;
81330;SDS011;70793;53.076;8.822;2023-06-24T11:46:23;2.50;;;1.45;;
81330;SDS011;70793;53.076;8.822;2023-06-24T11:49:08;1.58;;;1.48;;
81330;SDS011;70793;53.076;8.822;2023-06-24T11:51:34;1.48;;;1.38;;
81330;SDS011;70793;53.076;8.822;2023-06-24T11:54:01;1.70;;;1.40;;
81330;SDS011;70793;53.076;8.822;2023-06-24T11:56:38;1.27;;;1.15;;
81330;SDS011;70793;53.076;8.822;2023-06-24T11:59:04;1.48;;;1.38;;
81330;SDS011;70793;53.076;8.822;2023-06-24T12:01:34;1.40;;;1.30;;
81330;SDS011;70793;53.076;8.822;2023-06-24T12:04:13;2.20;;;1.40;;
81330;SDS011;70793;53.076;8.822;2023-06-24T12:06:42;1.40;;;1.30;;
81330;SDS011;70793;53.076;8.822;2023-06-24T12:09:08;1.92;;;1.40;;
81330;SDS011;70793;53.076;8.822;2023-06-24T12:11:34;1.42;;;1.33;;
81330;SDS011;70793;53.076;8.822;2023-06-24T12:13:59;1.65;;;1.55;;
81330;SDS011;70793;53.076;8.822;2023-06-24T12:16:24;1.90;;;1.80;;
81330;SDS011;70793;53.076;8.822;2023-06-24T12:18:51;2.40;;;1.85;;
81330;SDS011;70793;53.076;8.822;2023-06-24T12:21:16;2.25;;;1.60;;
81330;SDS011;70793;53.076;8.822;2023-06-24T12:23:42;1.95;;;1.60;;
81330;SDS011;70793;53.076;8.822;2023-06-24T12:26:07;2.70;;;1.58;;
81330;SDS011;70793;53.076;8.822;2023-06-24T12:28:33;2.17;;;1.90;;
81330;SDS011;70793;53.076;8.822;2023-06-24T12:30:58;2.05;;;1.38;;
81330;SDS011;70793;53.076;8.822;2023-06-24T12:33:23;1.95;;;1.58;;
81330;SDS011;70793;53.076;8.822;2023-06-24T12:35:49;1.70;;;1.60;;
81330;SDS011;70793;53.076;8.822;2023-06-24T12:38:14;2.35;;;1.70;;
81330;SDS011;70793;53.076;8.822;2023-06-24T12:40:41;2.03;;;1.60;;
81330;SDS011;70793;53.076;8.822;2023-06-24T12:43:10;1.30;;;1.20;;
81330;SDS011;70793;53.076;8.822;2023-06-24T12:45:35;1.83;;;1.58;;
81330;SDS011;70793;53.076;8.822;2023-06-24T12:48:02;1.48;;;1.27;;
81330;SDS011;70793;53.076;8.822;2023-06-24T12:50:27;1.48;;;1.38;;
81330;SDS011;70793;53.076;8.822;2023-06-24T12:52:53;1.48;;;1.23;;
81330;SDS011;70793;53.076;8.822;2023-06-24T12:55:18;1.50;;;1.40;;
81330;SDS011;70793;53.076;8.822;2023-06-24T12:57:43;1.70;;;1.33;;
81330;SDS011;70793;53.076;8.822;2023-06-24T13:00:09;1.58;;;1.33;;
81330;SDS011;70793;53.076;8.822;2023-06-24T13:02:35;1.67;;;1.48;;
81330;SDS011;70793;53.076;8.822;2023-06-24T13:05:02;1.42;;;1.30;;
81330;SDS011;70793;53.076;8.822;2023-06-24T13:10:10;1.88;;;1.42;;
81330;SDS011;70793;53.076;8.822;2023-06-24T13:12:36;1.98;;;1.05;;
81330;SDS011;70793;53.076;8.822;2023-06-24T13:15:02;1.38;;;1.27;;
81330;SDS011;70793;53.076;8.822;2023-06-24T13:17:34;1.55;;;1.42;;
81330;SDS011;70793;53.076;8.822;2023-06-24T13:20:00;1.85;;;1.48;;
81330;SDS011;70793;53.076;8.822;2023-06-24T13:22:26;1.77;;;1.45;;
81330;SDS011;70793;53.076;8.822;2023-06-24T13:24:52;1.73;;;1.63;;
81330;SDS011;70793;53.076;8.822;2023-06-24T13:27:17;1.50;;;1.35;;
81330;SDS011;70793;53.076;8.822;2023-06-24T13:29:42;2.72;;;1.70;;
81330;SDS011;70793;53.076;8.822;2023-06-24T13:32:08;1.58;;;1.48;;
81330;SDS011;70793;53.076;8.822;2023-06-24T13:34:34;1.92;;;1.48;;
81330;SDS011;70793;53.076;8.822;2023-06-24T13:36:59;2.10;;;1.17;;
81330;SDS011;70793;53.076;8.822;2023-06-24T13:39:24;1.73;;;1.40;;
81330;SDS011;70793;53.076;8.822;2023-06-24T13:41:51;2.25;;;2.05;;
81330;SDS011;70793;53.076;8.822;2023-06-24T13:44:17;1.73;;;1.40;;
81330;SDS011;70793;53.076;8.822;2023-06-24T13:46:43;1.20;;;1.10;;
81330;SDS011;70793;53.076;8.822;2023-06-24T13:49:08;2.15;;;1.45;;
81330;SDS011;70793;53.076;8.822;2023-06-24T13:51:34;1.58;;;1.48;;
81330;SDS011;70793;53.076;8.822;2023-06-24T13:54:00;1.30;;;1.20;;
81330;SDS011;70793;53.076;8.822;2023-06-24T13:56:26;1.48;;;1.38;;
81330;SDS011;70793;53.076;8.822;2023-06-24T13:58:52;3.53;;;1.20;;
81330;SDS011;70793;53.076;8.822;2023-06-24T14:01:17;1.60;;;1.33;;
81330;SDS011;70793;53.076;8.822;2023-06-24T14:03:43;2.72;;;2.33;;
81330;SDS011;70793;53.076;8.822;2023-06-24T14:06:09;1.58;;;1.48;;
81330;SDS011;70793;53.076;8.822;2023-06-24T14:08:35;1.27;;;1.17;;
81330;SDS011;70793;53.076;8.822;2023-06-24T14:11:00;1.33;;;1.20;;
81330;SDS011;70793;53.076;8.822;2023-06-24T14:13:26;2.00;;;1.42;;
81330;SDS011;70793;53.076;8.822;2023-06-24T14:15:52;1.48;;;1.20;;
81330;SDS011;70793;53.076;8.822;2023-06-24T14:18:18;1.52;;;1.17;;
81330;SDS011;70793;53.076;8.822;2023-06-24T14:20:44;1.50;;;1.38;;
81330;SDS011;70793;53.076;8.822;2023-06-24T14:23:09;1.35;;;1.20;;
81330;SDS011;70793;53.076;8.822;2023-06-24T14:25:34;1.10;;;1.00;;
81330;SDS011;70793;53.076;8.822;2023-06-24T14:28:02;1.60;;;1.10;;
81330;SDS011;70793;53.076;8.822;2023-06-24T14:30:28;1.20;;;1.10;;
81330;SDS011;70793;53.076;8.822;2023-06-24T14:32:54;1.55;;;1.45;;
81330;SDS011;70793;53.076;8.822;2023-06-24T14:35:19;1.67;;;1.30;;
81330;SDS011;70793;53.076;8.822;2023-06-24T14:37:44;1.20;;;1.10;;
81330;SDS011;70793;53.076;8.822;2023-06-24T14:40:10;1.98;;;1.10;;
81330;SDS011;70793;53.076;8.822;2023-06-24T14:42:35;1.40;;;1.30;;
81330;SDS011;70793;53.076;8.822;2023-06-24T14:45:01;2.50;;;1.38;;
81330;SDS011;70793;53.076;8.822;2023-06-24T14:47:26;1.20;;;0.95;;
81330;SDS011;70793;53.076;8.822;2023-06-24T14:49:52;1.55;;;1.08;;
81330;SDS011;70793;53.076;8.822;2023-06-24T14:52:18;1.30;;;1.20;;
81330;SDS011;70793;53.076;8.822;2023-06-24T14:54:43;1.40;;;1.23;;
81330;SDS011;70793;53.076;8.822;2023-06-24T14:57:08;1.05;;;0.95;;
81330;SDS011;70793;53.076;8.822;2023-06-24T14:59:34;1.50;;;1.30;;
81330;SDS011;70793;53.076;8.822;2023-06-24T15:01:59;1.50;;;1.40;;